sensor_id;sensor_type;location;lat;lon;timestamp;P1;durP1;ratioP1;P2;durP2;ratioP2
4198;SDS011;2113;50.946;14.610;2024-03-02T00:00:29;30.38;;;19.15;;
4198;SDS011;2113;50.946;14.610;2024-03-02T00:02:59;34.65;;;20.25;;
4198;SDS011;2113;50.946;14.610;2024-03-02T00:05:27;31.88;;;19.20;;
4198;SDS011;2113;50.946;14.610;2024-03-02T00:07:56;28.45;;;20.25;;
4198;SDS011;2113;50.946;14.610;2024-03-02T00:10:27;28.25;;;18.13;;
4198;SDS011;2113;50.946;14.610;2024-03-02T00:13:03;30.80;;;19.38;;
4198;SDS011;2113;50.946;14.610;2024-03-02T00:15:40;36.13;;;20.67;;
4198;SDS011;2113;50.946;14.610;2024-03-02T00:18:12;31.05;;;19.35;;
4198;SDS011;2113;50.946;14.610;2024-03-02T00:20:41;27.95;;;19.90;;
4198;SDS011;2113;50.946;14.610;2024-03-02T00:23:10;31.25;;;17.67;;
4198;SDS011;2113;50.946;14.610;2024-03-02T00:25:42;26.67;;;17.65;;
4198;SDS011;2113;50.946;14.610;2024-03-02T00:28:16;33.35;;;18.98;;
4198;SDS011;2113;50.946;14.610;2024-03-02T00:30:51;33.88;;;20.83;;
4198;SDS011;2113;50.946;14.610;2024-03-02T00:33:25;37.60;;;20.30;;
4198;SDS011;2113;50.946;14.610;2024-03-02T00:35:56;33.50;;;19.70;;
4198;SDS011;2113;50.946;14.610;2024-03-02T00:38:24;30.63;;;18.13;;
4198;SDS011;2113;50.946;14.610;2024-03-02T00:40:53;32.88;;;20.98;;
4198;SDS011;2113;50.946;14.610;2024-03-02T00:43:41;31.60;;;17.73;;
4198;SDS011;2113;50.946;14.610;2024-03-02T00:46:15;33.38;;;18.50;;
4198;SDS011;2113;50.946;14.610;2024-03-02T00:48:52;32.58;;;20.83;;
4198;SDS011;2113;50.946;14.610;2024-03-02T00:51:22;34.05;;;20.80;;
4198;SDS011;2113;50.946;14.610;2024-03-02T00:53:52;35.40;;;20.60;;
4198;SDS011;2113;50.946;14.610;2024-03-02T00:56:22;34.53;;;21.35;;
4198;SDS011;2113;50.946;14.610;2024-03-02T00:58:51;34.42;;;22.75;;
4198;SDS011;2113;50.946;14.610;2024-03-02T01:01:20;33.83;;;20.33;;
4198;SDS011;2113;50.946;14.610;2024-03-02T01:03:49;37.83;;;21.08;;
4198;SDS011;2113;50.946;14.610;2024-03-02T01:06:19;43.72;;;23.92;;
4198;SDS011;2113;50.946;14.610;2024-03-02T01:08:49;43.35;;;24.73;;
4198;SDS011;2113;50.946;14.610;2024-03-02T01:11:19;35.22;;;22.83;;
4198;SDS011;2113;50.946;14.610;2024-03-02T01:13:50;38.03;;;23.30;;
4198;SDS011;2113;50.946;14.610;2024-03-02T01:16:18;36.78;;;20.83;;
4198;SDS011;2113;50.946;14.610;2024-03-02T01:18:47;44.60;;;23.98;;
4198;SDS011;2113;50.946;14.610;2024-03-02T01:21:16;37.65;;;22.05;;
4198;SDS011;2113;50.946;14.610;2024-03-02T01:23:47;37.72;;;23.65;;
4198;SDS011;2113;50.946;14.610;2024-03-02T01:26:15;41.45;;;22.77;;
4198;SDS011;2113;50.946;14.610;2024-03-02T01:28:43;43.50;;;23.48;;
4198;SDS011;2113;50.946;14.610;2024-03-02T01:31:11;44.95;;;25.20;;
4198;SDS011;2113;50.946;14.610;2024-03-02T01:33:40;45.13;;;26.00;;
4198;SDS011;2113;50.946;14.610;2024-03-02T01:36:08;50.83;;;27.33;;
4198;SDS011;2113;50.946;14.610;2024-03-02T01:38:36;51.42;;;26.40;;
4198;SDS011;2113;50.946;14.610;2024-03-02T01:41:05;50.20;;;26.13;;
4198;SDS011;2113;50.946;14.610;2024-03-02T01:43:34;56.33;;;28.38;;
4198;SDS011;2113;50.946;14.610;2024-03-02T01:46:07;64.57;;;33.10;;
4198;SDS011;2113;50.946;14.610;2024-03-02T01:48:36;69.50;;;31.88;;
4198;SDS011;2113;50.946;14.610;2024-03-02T01:51:04;66.97;;;34.17;;
4198;SDS011;2113;50.946;14.610;2024-03-02T01:53:33;64.65;;;32.10;;
4198;SDS011;2113;50.946;14.610;2024-03-02T01:56:02;73.28;;;35.72;;
4198;SDS011;2113;50.946;14.610;2024-03-02T01:58:31;73.20;;;35.28;;
4198;SDS011;2113;50.946;14.610;2024-03-02T02:01:00;71.72;;;34.35;;
4198;SDS011;2113;50.946;14.610;2024-03-02T02:03:28;65.13;;;33.97;;
4198;SDS011;2113;50.946;14.610;2024-03-02T02:05:56;74.65;;;36.40;;
4198;SDS011;2113;50.946;14.610;2024-03-02T02:08:24;67.32;;;34.13;;
4198;SDS011;2113;50.946;14.610;2024-03-02T02:10:52;77.78;;;37.20;;
4198;SDS011;2113;50.946;14.610;2024-03-02T02:13:21;72.10;;;34.45;;
4198;SDS011;2113;50.946;14.610;2024-03-02T02:15:50;70.15;;;33.65;;
4198;SDS011;2113;50.946;14.610;2024-03-02T02:18:20;67.45;;;32.70;;
4198;SDS011;2113;50.946;14.610;2024-03-02T02:20:48;79.15;;;34.25;;
4198;SDS011;2113;50.946;14.610;2024-03-02T02:23:17;66.82;;;33.83;;
4198;SDS011;2113;50.946;14.610;2024-03-02T02:25:45;76.30;;;34.55;;
4198;SDS011;2113;50.946;14.610;2024-03-02T02:28:13;71.63;;;37.72;;
4198;SDS011;2113;50.946;14.610;2024-03-02T02:30:42;68.15;;;34.83;;
4198;SDS011;2113;50.946;14.610;2024-03-02T02:33:10;64.70;;;34.00;;
4198;SDS011;2113;50.946;14.610;2024-03-02T02:35:38;73.57;;;35.70;;
4198;SDS011;2113;50.946;14.610;2024-03-02T02:38:07;69.97;;;34.20;;
4198;SDS011;2113;50.946;14.610;2024-03-02T02:40:36;72.82;;;38.22;;
4198;SDS011;2113;50.946;14.610;2024-03-02T02:43:04;76.55;;;36.72;;
4198;SDS011;2113;50.946;14.610;2024-03-02T02:45:33;69.80;;;35.00;;
4198;SDS011;2113;50.946;14.610;2024-03-02T02:48:01;85.45;;;37.53;;
4198;SDS011;2113;50.946;14.610;2024-03-02T02:50:30;81.18;;;38.22;;
4198;SDS011;2113;50.946;14.610;2024-03-02T02:52:58;70.35;;;37.35;;
4198;SDS011;2113;50.946;14.610;2024-03-02T02:55:26;83.63;;;40.08;;
4198;SDS011;2113;50.946;14.610;2024-03-02T02:57:56;89.90;;;37.97;;
4198;SDS011;2113;50.946;14.610;2024-03-02T03:00:24;89.80;;;40.83;;
4198;SDS011;2113;50.946;14.610;2024-03-02T03:02:52;74.45;;;36.63;;
4198;SDS011;2113;50.946;14.610;2024-03-02T03:05:20;70.63;;;36.50;;
4198;SDS011;2113;50.946;14.610;2024-03-02T03:07:48;91.15;;;38.60;;
4198;SDS011;2113;50.946;14.610;2024-03-02T03:10:17;85.90;;;37.20;;
4198;SDS011;2113;50.946;14.610;2024-03-02T03:12:48;81.60;;;38.83;;
4198;SDS011;2113;50.946;14.610;2024-03-02T03:15:18;92.65;;;40.85;;
4198;SDS011;2113;50.946;14.610;2024-03-02T03:17:46;79.78;;;39.90;;
4198;SDS011;2113;50.946;14.610;2024-03-02T03:20:14;98.45;;;41.95;;
4198;SDS011;2113;50.946;14.610;2024-03-02T03:22:42;80.93;;;37.95;;
4198;SDS011;2113;50.946;14.610;2024-03-02T03:25:11;88.70;;;42.83;;
4198;SDS011;2113;50.946;14.610;2024-03-02T03:27:39;87.82;;;39.53;;
4198;SDS011;2113;50.946;14.610;2024-03-02T03:30:08;90.45;;;42.60;;
4198;SDS011;2113;50.946;14.610;2024-03-02T03:32:39;89.88;;;40.28;;
4198;SDS011;2113;50.946;14.610;2024-03-02T03:35:08;90.38;;;42.85;;
4198;SDS011;2113;50.946;14.610;2024-03-02T03:37:36;82.68;;;43.15;;
4198;SDS011;2113;50.946;14.610;2024-03-02T03:40:05;88.40;;;39.17;;
4198;SDS011;2113;50.946;14.610;2024-03-02T03:42:37;96.53;;;41.55;;
4198;SDS011;2113;50.946;14.610;2024-03-02T03:45:06;102.80;;;43.95;;
4198;SDS011;2113;50.946;14.610;2024-03-02T03:47:35;102.72;;;42.65;;
4198;SDS011;2113;50.946;14.610;2024-03-02T03:50:05;95.63;;;42.67;;
4198;SDS011;2113;50.946;14.610;2024-03-02T03:52:34;105.00;;;44.72;;
4198;SDS011;2113;50.946;14.610;2024-03-02T03:55:03;85.80;;;40.85;;
4198;SDS011;2113;50.946;14.610;2024-03-02T03:57:32;91.72;;;42.88;;
4198;SDS011;2113;50.946;14.610;2024-03-02T04:00:02;99.70;;;44.53;;
4198;SDS011;2113;50.946;14.610;2024-03-02T04:02:40;95.63;;;41.22;;
4198;SDS011;2113;50.946;14.610;2024-03-02T04:05:10;89.35;;;40.88;;
4198;SDS011;2113;50.946;14.610;2024-03-02T04:07:38;105.97;;;42.78;;
4198;SDS011;2113;50.946;14.610;2024-03-02T04:10:08;100.65;;;41.72;;
4198;SDS011;2113;50.946;14.610;2024-03-02T04:12:37;104.78;;;46.25;;
4198;SDS011;2113;50.946;14.610;2024-03-02T04:15:05;84.40;;;40.05;;
4198;SDS011;2113;50.946;14.610;2024-03-02T04:17:33;96.28;;;43.08;;
4198;SDS011;2113;50.946;14.610;2024-03-02T04:20:02;98.50;;;45.20;;
4198;SDS011;2113;50.946;14.610;2024-03-02T04:22:34;106.05;;;44.50;;
4198;SDS011;2113;50.946;14.610;2024-03-02T04:25:03;118.75;;;45.08;;
4198;SDS011;2113;50.946;14.610;2024-03-02T04:27:34;103.13;;;44.65;;
4198;SDS011;2113;50.946;14.610;2024-03-02T04:30:03;99.47;;;44.10;;
4198;SDS011;2113;50.946;14.610;2024-03-02T04:32:33;107.40;;;46.22;;
4198;SDS011;2113;50.946;14.610;2024-03-02T04:35:03;97.40;;;45.33;;
4198;SDS011;2113;50.946;14.610;2024-03-02T04:37:34;106.18;;;44.60;;
4198;SDS011;2113;50.946;14.610;2024-03-02T04:40:02;105.90;;;43.28;;
4198;SDS011;2113;50.946;14.610;2024-03-02T04:42:34;97.85;;;43.50;;
4198;SDS011;2113;50.946;14.610;2024-03-02T04:45:04;96.55;;;44.03;;
4198;SDS011;2113;50.946;14.610;2024-03-02T04:47:33;107.55;;;43.88;;
4198;SDS011;2113;50.946;14.610;2024-03-02T04:50:02;83.15;;;42.42;;
4198;SDS011;2113;50.946;14.610;2024-03-02T04:52:30;101.65;;;45.50;;
4198;SDS011;2113;50.946;14.610;2024-03-02T04:55:00;97.47;;;42.67;;
4198;SDS011;2113;50.946;14.610;2024-03-02T04:57:46;100.07;;;41.50;;
4198;SDS011;2113;50.946;14.610;2024-03-02T05:00:14;100.78;;;41.60;;
4198;SDS011;2113;50.946;14.610;2024-03-02T05:02:43;93.25;;;43.65;;
4198;SDS011;2113;50.946;14.610;2024-03-02T05:05:11;95.30;;;40.35;;
4198;SDS011;2113;50.946;14.610;2024-03-02T05:07:42;95.78;;;40.80;;
4198;SDS011;2113;50.946;14.610;2024-03-02T05:10:12;88.47;;;38.47;;
4198;SDS011;2113;50.946;14.610;2024-03-02T05:12:41;88.43;;;38.75;;
4198;SDS011;2113;50.946;14.610;2024-03-02T05:15:23;81.00;;;38.80;;
4198;SDS011;2113;50.946;14.610;2024-03-02T05:17:52;88.82;;;36.85;;
4198;SDS011;2113;50.946;14.610;2024-03-02T05:20:20;78.65;;;37.78;;
4198;SDS011;2113;50.946;14.610;2024-03-02T05:22:48;84.57;;;35.70;;
4198;SDS011;2113;50.946;14.610;2024-03-02T05:25:18;73.10;;;35.53;;
4198;SDS011;2113;50.946;14.610;2024-03-02T05:27:46;70.90;;;35.47;;
4198;SDS011;2113;50.946;14.610;2024-03-02T05:30:14;92.25;;;39.78;;
4198;SDS011;2113;50.946;14.610;2024-03-02T05:32:42;71.72;;;37.05;;
4198;SDS011;2113;50.946;14.610;2024-03-02T05:35:10;73.63;;;37.38;;
4198;SDS011;2113;50.946;14.610;2024-03-02T05:37:39;81.20;;;35.42;;
4198;SDS011;2113;50.946;14.610;2024-03-02T05:40:08;74.50;;;34.42;;
4198;SDS011;2113;50.946;14.610;2024-03-02T05:42:39;71.90;;;34.42;;
4198;SDS011;2113;50.946;14.610;2024-03-02T05:45:08;68.43;;;33.20;;
4198;SDS011;2113;50.946;14.610;2024-03-02T05:47:36;70.65;;;32.92;;
4198;SDS011;2113;50.946;14.610;2024-03-02T05:50:05;72.95;;;34.75;;
4198;SDS011;2113;50.946;14.610;2024-03-02T05:52:34;61.75;;;32.70;;
4198;SDS011;2113;50.946;14.610;2024-03-02T05:55:03;72.50;;;33.22;;
4198;SDS011;2113;50.946;14.610;2024-03-02T05:57:32;66.95;;;29.77;;
4198;SDS011;2113;50.946;14.610;2024-03-02T06:00:16;65.30;;;28.73;;
4198;SDS011;2113;50.946;14.610;2024-03-02T06:02:45;53.90;;;28.15;;
4198;SDS011;2113;50.946;14.610;2024-03-02T06:05:13;59.30;;;30.52;;
4198;SDS011;2113;50.946;14.610;2024-03-02T06:07:41;60.80;;;27.70;;
4198;SDS011;2113;50.946;14.610;2024-03-02T06:10:10;60.83;;;29.60;;
4198;SDS011;2113;50.946;14.610;2024-03-02T06:12:41;61.92;;;27.27;;
4198;SDS011;2113;50.946;14.610;2024-03-02T06:15:09;62.92;;;28.05;;
4198;SDS011;2113;50.946;14.610;2024-03-02T06:17:39;63.15;;;31.88;;
4198;SDS011;2113;50.946;14.610;2024-03-02T06:20:07;51.45;;;27.02;;
4198;SDS011;2113;50.946;14.610;2024-03-02T06:22:36;58.83;;;24.55;;
4198;SDS011;2113;50.946;14.610;2024-03-02T06:25:05;53.22;;;24.15;;
4198;SDS011;2113;50.946;14.610;2024-03-02T06:27:34;54.15;;;27.27;;
4198;SDS011;2113;50.946;14.610;2024-03-02T06:30:03;49.50;;;25.48;;
4198;SDS011;2113;50.946;14.610;2024-03-02T06:32:32;48.22;;;23.77;;
4198;SDS011;2113;50.946;14.610;2024-03-02T06:35:01;52.83;;;24.65;;
4198;SDS011;2113;50.946;14.610;2024-03-02T06:37:30;56.05;;;23.55;;
4198;SDS011;2113;50.946;14.610;2024-03-02T06:39:59;48.53;;;22.85;;
4198;SDS011;2113;50.946;14.610;2024-03-02T06:42:27;51.72;;;25.02;;
4198;SDS011;2113;50.946;14.610;2024-03-02T06:45:00;48.65;;;23.73;;
4198;SDS011;2113;50.946;14.610;2024-03-02T06:47:28;46.90;;;22.38;;
4198;SDS011;2113;50.946;14.610;2024-03-02T06:49:57;48.63;;;23.65;;
4198;SDS011;2113;50.946;14.610;2024-03-02T06:52:27;48.00;;;21.25;;
4198;SDS011;2113;50.946;14.610;2024-03-02T06:54:55;46.30;;;22.25;;
4198;SDS011;2113;50.946;14.610;2024-03-02T06:57:23;53.00;;;22.20;;
4198;SDS011;2113;50.946;14.610;2024-03-02T06:59:51;43.47;;;23.52;;
4198;SDS011;2113;50.946;14.610;2024-03-02T07:02:21;43.17;;;21.35;;
4198;SDS011;2113;50.946;14.610;2024-03-02T07:04:49;44.13;;;21.55;;
4198;SDS011;2113;50.946;14.610;2024-03-02T07:07:17;37.35;;;20.90;;
4198;SDS011;2113;50.946;14.610;2024-03-02T07:09:47;45.28;;;21.20;;
4198;SDS011;2113;50.946;14.610;2024-03-02T07:12:15;43.47;;;23.27;;
4198;SDS011;2113;50.946;14.610;2024-03-02T07:14:44;41.92;;;20.83;;
4198;SDS011;2113;50.946;14.610;2024-03-02T07:17:31;36.20;;;19.50;;
4198;SDS011;2113;50.946;14.610;2024-03-02T07:19:59;38.65;;;19.00;;
4198;SDS011;2113;50.946;14.610;2024-03-02T07:22:27;34.60;;;17.95;;
4198;SDS011;2113;50.946;14.610;2024-03-02T07:24:57;34.20;;;17.90;;
4198;SDS011;2113;50.946;14.610;2024-03-02T07:27:25;36.33;;;19.52;;
4198;SDS011;2113;50.946;14.610;2024-03-02T07:29:53;37.65;;;18.77;;
4198;SDS011;2113;50.946;14.610;2024-03-02T07:32:22;40.33;;;19.30;;
4198;SDS011;2113;50.946;14.610;2024-03-02T07:34:50;39.78;;;20.23;;
4198;SDS011;2113;50.946;14.610;2024-03-02T07:37:19;36.42;;;18.60;;
4198;SDS011;2113;50.946;14.610;2024-03-02T07:39:48;42.45;;;19.67;;
4198;SDS011;2113;50.946;14.610;2024-03-02T07:42:17;39.78;;;18.80;;
4198;SDS011;2113;50.946;14.610;2024-03-02T07:44:45;36.38;;;19.90;;
4198;SDS011;2113;50.946;14.610;2024-03-02T07:47:14;36.67;;;17.90;;
4198;SDS011;2113;50.946;14.610;2024-03-02T07:49:42;34.28;;;17.15;;
4198;SDS011;2113;50.946;14.610;2024-03-02T07:52:12;39.85;;;18.88;;
4198;SDS011;2113;50.946;14.610;2024-03-02T07:54:40;36.72;;;18.80;;
4198;SDS011;2113;50.946;14.610;2024-03-02T07:57:08;29.85;;;17.90;;
4198;SDS011;2113;50.946;14.610;2024-03-02T07:59:38;36.28;;;19.52;;
4198;SDS011;2113;50.946;14.610;2024-03-02T08:02:06;37.75;;;19.80;;
4198;SDS011;2113;50.946;14.610;2024-03-02T08:04:34;38.42;;;20.27;;
4198;SDS011;2113;50.946;14.610;2024-03-02T08:07:03;34.70;;;17.67;;
4198;SDS011;2113;50.946;14.610;2024-03-02T08:09:32;32.55;;;16.95;;
4198;SDS011;2113;50.946;14.610;2024-03-02T08:12:01;35.53;;;20.88;;
4198;SDS011;2113;50.946;14.610;2024-03-02T08:14:30;30.95;;;18.50;;
4198;SDS011;2113;50.946;14.610;2024-03-02T08:16:59;34.90;;;18.50;;
4198;SDS011;2113;50.946;14.610;2024-03-02T08:19:28;38.88;;;18.48;;
4198;SDS011;2113;50.946;14.610;2024-03-02T08:21:57;32.17;;;17.63;;
4198;SDS011;2113;50.946;14.610;2024-03-02T08:24:26;37.85;;;18.35;;
4198;SDS011;2113;50.946;14.610;2024-03-02T08:26:54;32.92;;;17.25;;
4198;SDS011;2113;50.946;14.610;2024-03-02T08:29:23;39.75;;;20.63;;
4198;SDS011;2113;50.946;14.610;2024-03-02T08:31:51;40.20;;;20.73;;
4198;SDS011;2113;50.946;14.610;2024-03-02T08:34:21;34.75;;;18.88;;
4198;SDS011;2113;50.946;14.610;2024-03-02T08:36:50;32.70;;;18.90;;
4198;SDS011;2113;50.946;14.610;2024-03-02T08:39:18;24.88;;;16.30;;
4198;SDS011;2113;50.946;14.610;2024-03-02T08:41:47;36.83;;;19.92;;
4198;SDS011;2113;50.946;14.610;2024-03-02T08:44:16;37.13;;;20.40;;
4198;SDS011;2113;50.946;14.610;2024-03-02T08:46:45;37.85;;;19.60;;
4198;SDS011;2113;50.946;14.610;2024-03-02T08:49:13;29.23;;;17.40;;
4198;SDS011;2113;50.946;14.610;2024-03-02T08:51:42;31.63;;;17.17;;
4198;SDS011;2113;50.946;14.610;2024-03-02T08:54:23;34.97;;;18.33;;
4198;SDS011;2113;50.946;14.610;2024-03-02T08:56:51;32.90;;;18.15;;
4198;SDS011;2113;50.946;14.610;2024-03-02T08:59:19;30.10;;;16.70;;
4198;SDS011;2113;50.946;14.610;2024-03-02T09:01:47;30.58;;;16.80;;
4198;SDS011;2113;50.946;14.610;2024-03-02T09:04:15;36.03;;;17.75;;
4198;SDS011;2113;50.946;14.610;2024-03-02T09:06:45;30.23;;;16.15;;
4198;SDS011;2113;50.946;14.610;2024-03-02T09:09:13;32.85;;;17.60;;
4198;SDS011;2113;50.946;14.610;2024-03-02T09:11:41;30.60;;;18.23;;
4198;SDS011;2113;50.946;14.610;2024-03-02T09:14:09;35.40;;;17.27;;
4198;SDS011;2113;50.946;14.610;2024-03-02T09:16:41;27.38;;;15.60;;
4198;SDS011;2113;50.946;14.610;2024-03-02T09:19:10;31.58;;;16.20;;
4198;SDS011;2113;50.946;14.610;2024-03-02T09:21:38;29.27;;;16.90;;
4198;SDS011;2113;50.946;14.610;2024-03-02T09:24:07;31.75;;;17.45;;
4198;SDS011;2113;50.946;14.610;2024-03-02T09:26:36;38.00;;;15.93;;
4198;SDS011;2113;50.946;14.610;2024-03-02T09:29:04;28.05;;;15.80;;
4198;SDS011;2113;50.946;14.610;2024-03-02T09:31:32;28.73;;;14.63;;
4198;SDS011;2113;50.946;14.610;2024-03-02T09:34:01;30.25;;;16.92;;
4198;SDS011;2113;50.946;14.610;2024-03-02T09:36:29;32.00;;;17.88;;
4198;SDS011;2113;50.946;14.610;2024-03-02T09:38:58;28.23;;;14.77;;
4198;SDS011;2113;50.946;14.610;2024-03-02T09:41:27;26.33;;;15.32;;
4198;SDS011;2113;50.946;14.610;2024-03-02T09:43:55;25.42;;;13.15;;
4198;SDS011;2113;50.946;14.610;2024-03-02T09:46:24;24.65;;;15.00;;
4198;SDS011;2113;50.946;14.610;2024-03-02T09:48:53;27.00;;;13.27;;
4198;SDS011;2113;50.946;14.610;2024-03-02T09:51:21;23.30;;;13.00;;
4198;SDS011;2113;50.946;14.610;2024-03-02T09:53:50;27.17;;;14.98;;
4198;SDS011;2113;50.946;14.610;2024-03-02T09:56:22;32.35;;;14.13;;
4198;SDS011;2113;50.946;14.610;2024-03-02T09:58:51;22.60;;;12.55;;
4198;SDS011;2113;50.946;14.610;2024-03-02T10:01:19;28.75;;;14.48;;
4198;SDS011;2113;50.946;14.610;2024-03-02T10:03:48;29.08;;;14.82;;
4198;SDS011;2113;50.946;14.610;2024-03-02T10:06:20;26.30;;;14.30;;
4198;SDS011;2113;50.946;14.610;2024-03-02T10:08:50;27.42;;;15.52;;
4198;SDS011;2113;50.946;14.610;2024-03-02T10:11:28;32.60;;;17.20;;
4198;SDS011;2113;50.946;14.610;2024-03-02T10:14:06;39.72;;;17.55;;
4198;SDS011;2113;50.946;14.610;2024-03-02T10:16:37;31.08;;;18.42;;
4198;SDS011;2113;50.946;14.610;2024-03-02T10:19:15;28.92;;;16.55;;
4198;SDS011;2113;50.946;14.610;2024-03-02T10:21:45;28.00;;;16.48;;
4198;SDS011;2113;50.946;14.610;2024-03-02T10:24:14;29.80;;;15.57;;
4198;SDS011;2113;50.946;14.610;2024-03-02T10:26:42;30.85;;;17.17;;
4198;SDS011;2113;50.946;14.610;2024-03-02T10:29:12;29.73;;;17.15;;
4198;SDS011;2113;50.946;14.610;2024-03-02T10:31:41;30.08;;;17.67;;
4198;SDS011;2113;50.946;14.610;2024-03-02T10:34:12;30.67;;;15.68;;
4198;SDS011;2113;50.946;14.610;2024-03-02T10:36:43;26.95;;;17.15;;
4198;SDS011;2113;50.946;14.610;2024-03-02T10:39:13;30.73;;;17.15;;
4198;SDS011;2113;50.946;14.610;2024-03-02T10:41:42;28.17;;;15.15;;
4198;SDS011;2113;50.946;14.610;2024-03-02T10:44:14;30.70;;;15.85;;
4198;SDS011;2113;50.946;14.610;2024-03-02T10:46:43;27.85;;;15.63;;
4198;SDS011;2113;50.946;14.610;2024-03-02T10:49:13;31.48;;;16.63;;
4198;SDS011;2113;50.946;14.610;2024-03-02T10:51:42;29.77;;;16.08;;
4198;SDS011;2113;50.946;14.610;2024-03-02T10:54:10;28.30;;;15.80;;
4198;SDS011;2113;50.946;14.610;2024-03-02T10:56:38;25.40;;;14.50;;
4198;SDS011;2113;50.946;14.610;2024-03-02T10:59:11;26.55;;;14.18;;
4198;SDS011;2113;50.946;14.610;2024-03-02T11:01:51;28.48;;;15.18;;
4198;SDS011;2113;50.946;14.610;2024-03-02T11:04:26;28.33;;;15.00;;
4198;SDS011;2113;50.946;14.610;2024-03-02T11:06:58;28.80;;;15.07;;
4198;SDS011;2113;50.946;14.610;2024-03-02T11:09:29;25.05;;;14.27;;
4198;SDS011;2113;50.946;14.610;2024-03-02T11:12:02;22.13;;;13.20;;
4198;SDS011;2113;50.946;14.610;2024-03-02T11:14:33;25.70;;;13.70;;
4198;SDS011;2113;50.946;14.610;2024-03-02T11:17:05;23.30;;;13.25;;
4198;SDS011;2113;50.946;14.610;2024-03-02T11:19:34;31.98;;;16.17;;
4198;SDS011;2113;50.946;14.610;2024-03-02T11:22:05;24.98;;;14.40;;
4198;SDS011;2113;50.946;14.610;2024-03-02T11:24:34;31.00;;;14.85;;
4198;SDS011;2113;50.946;14.610;2024-03-02T11:27:05;27.25;;;14.20;;
4198;SDS011;2113;50.946;14.610;2024-03-02T11:29:45;24.48;;;14.13;;
4198;SDS011;2113;50.946;14.610;2024-03-02T11:32:18;22.80;;;12.68;;
4198;SDS011;2113;50.946;14.610;2024-03-02T11:34:49;30.08;;;15.98;;
4198;SDS011;2113;50.946;14.610;2024-03-02T11:37:17;22.00;;;12.70;;
4198;SDS011;2113;50.946;14.610;2024-03-02T11:39:48;27.17;;;14.63;;
4198;SDS011;2113;50.946;14.610;2024-03-02T11:42:17;30.05;;;14.30;;
4198;SDS011;2113;50.946;14.610;2024-03-02T11:44:47;26.55;;;13.68;;
4198;SDS011;2113;50.946;14.610;2024-03-02T11:47:16;24.83;;;13.10;;
4198;SDS011;2113;50.946;14.610;2024-03-02T11:49:45;19.52;;;11.88;;
4198;SDS011;2113;50.946;14.610;2024-03-02T11:52:16;21.95;;;12.57;;
4198;SDS011;2113;50.946;14.610;2024-03-02T11:54:46;27.10;;;14.50;;
4198;SDS011;2113;50.946;14.610;2024-03-02T11:57:16;21.38;;;13.07;;
4198;SDS011;2113;50.946;14.610;2024-03-02T11:59:47;25.00;;;13.85;;
4198;SDS011;2113;50.946;14.610;2024-03-02T12:02:17;22.50;;;12.32;;
4198;SDS011;2113;50.946;14.610;2024-03-02T12:04:47;20.65;;;11.77;;
4198;SDS011;2113;50.946;14.610;2024-03-02T12:07:18;27.90;;;12.98;;
4198;SDS011;2113;50.946;14.610;2024-03-02T12:10:25;22.60;;;13.90;;
4198;SDS011;2113;50.946;14.610;2024-03-02T12:12:57;22.90;;;12.38;;
4198;SDS011;2113;50.946;14.610;2024-03-02T12:15:27;22.80;;;12.20;;
4198;SDS011;2113;50.946;14.610;2024-03-02T12:17:56;23.35;;;12.63;;
4198;SDS011;2113;50.946;14.610;2024-03-02T12:20:27;19.27;;;12.48;;
4198;SDS011;2113;50.946;14.610;2024-03-02T12:22:58;19.88;;;12.77;;
4198;SDS011;2113;50.946;14.610;2024-03-02T12:25:28;24.27;;;14.65;;
4198;SDS011;2113;50.946;14.610;2024-03-02T12:27:59;20.73;;;12.13;;
4198;SDS011;2113;50.946;14.610;2024-03-02T12:30:31;23.65;;;13.57;;
4198;SDS011;2113;50.946;14.610;2024-03-02T12:33:03;22.85;;;12.85;;
4198;SDS011;2113;50.946;14.610;2024-03-02T12:35:32;21.38;;;12.80;;
4198;SDS011;2113;50.946;14.610;2024-03-02T12:38:01;24.42;;;13.20;;
4198;SDS011;2113;50.946;14.610;2024-03-02T12:40:30;25.67;;;14.63;;
4198;SDS011;2113;50.946;14.610;2024-03-02T12:42:58;23.65;;;14.27;;
4198;SDS011;2113;50.946;14.610;2024-03-02T12:45:27;27.27;;;13.43;;
4198;SDS011;2113;50.946;14.610;2024-03-02T12:47:57;24.90;;;14.13;;
4198;SDS011;2113;50.946;14.610;2024-03-02T12:50:27;24.33;;;13.82;;
4198;SDS011;2113;50.946;14.610;2024-03-02T12:52:56;25.08;;;13.50;;
4198;SDS011;2113;50.946;14.610;2024-03-02T12:55:24;28.88;;;16.30;;
4198;SDS011;2113;50.946;14.610;2024-03-02T12:57:53;24.00;;;14.70;;
4198;SDS011;2113;50.946;14.610;2024-03-02T13:00:21;24.90;;;14.65;;
4198;SDS011;2113;50.946;14.610;2024-03-02T13:02:50;32.03;;;16.95;;
4198;SDS011;2113;50.946;14.610;2024-03-02T13:05:20;33.13;;;16.58;;
4198;SDS011;2113;50.946;14.610;2024-03-02T13:07:50;25.50;;;14.68;;
4198;SDS011;2113;50.946;14.610;2024-03-02T13:10:18;21.35;;;14.43;;
4198;SDS011;2113;50.946;14.610;2024-03-02T13:12:46;27.60;;;15.77;;
4198;SDS011;2113;50.946;14.610;2024-03-02T13:15:15;28.70;;;16.63;;
4198;SDS011;2113;50.946;14.610;2024-03-02T13:17:44;28.48;;;17.20;;
4198;SDS011;2113;50.946;14.610;2024-03-02T13:20:13;32.65;;;18.67;;
4198;SDS011;2113;50.946;14.610;2024-03-02T13:22:43;28.77;;;16.02;;
4198;SDS011;2113;50.946;14.610;2024-03-02T13:25:11;23.73;;;15.52;;
4198;SDS011;2113;50.946;14.610;2024-03-02T13:27:40;29.48;;;16.85;;
4198;SDS011;2113;50.946;14.610;2024-03-02T13:30:08;31.63;;;16.63;;
4198;SDS011;2113;50.946;14.610;2024-03-02T13:32:37;29.83;;;18.88;;
4198;SDS011;2113;50.946;14.610;2024-03-02T13:35:06;28.67;;;17.08;;
4198;SDS011;2113;50.946;14.610;2024-03-02T13:37:34;33.38;;;18.27;;
4198;SDS011;2113;50.946;14.610;2024-03-02T13:40:06;36.33;;;19.92;;
4198;SDS011;2113;50.946;14.610;2024-03-02T13:42:40;31.33;;;16.60;;
4198;SDS011;2113;50.946;14.610;2024-03-02T13:45:08;38.10;;;19.58;;
4198;SDS011;2113;50.946;14.610;2024-03-02T13:47:36;30.05;;;18.65;;
4198;SDS011;2113;50.946;14.610;2024-03-02T13:50:04;39.05;;;21.33;;
4198;SDS011;2113;50.946;14.610;2024-03-02T13:52:34;33.90;;;20.30;;
4198;SDS011;2113;50.946;14.610;2024-03-02T13:55:03;35.40;;;19.65;;
4198;SDS011;2113;50.946;14.610;2024-03-02T13:57:35;37.88;;;20.05;;
4198;SDS011;2113;50.946;14.610;2024-03-02T14:00:03;31.15;;;19.27;;
4198;SDS011;2113;50.946;14.610;2024-03-02T14:02:39;30.88;;;18.92;;
4198;SDS011;2113;50.946;14.610;2024-03-02T14:05:08;30.45;;;18.85;;
4198;SDS011;2113;50.946;14.610;2024-03-02T14:07:38;30.95;;;17.40;;
4198;SDS011;2113;50.946;14.610;2024-03-02T14:10:08;35.15;;;18.30;;
4198;SDS011;2113;50.946;14.610;2024-03-02T14:12:39;33.67;;;18.40;;
4198;SDS011;2113;50.946;14.610;2024-03-02T14:15:08;30.60;;;18.25;;
4198;SDS011;2113;50.946;14.610;2024-03-02T14:17:37;37.13;;;20.10;;
4198;SDS011;2113;50.946;14.610;2024-03-02T14:20:05;31.15;;;19.17;;
4198;SDS011;2113;50.946;14.610;2024-03-02T14:22:37;29.13;;;17.90;;
4198;SDS011;2113;50.946;14.610;2024-03-02T14:25:05;32.70;;;18.05;;
4198;SDS011;2113;50.946;14.610;2024-03-02T14:27:35;39.35;;;20.77;;
4198;SDS011;2113;50.946;14.610;2024-03-02T14:30:26;30.83;;;19.15;;
4198;SDS011;2113;50.946;14.610;2024-03-02T14:32:54;33.70;;;18.20;;
4198;SDS011;2113;50.946;14.610;2024-03-02T14:35:23;31.40;;;17.65;;
4198;SDS011;2113;50.946;14.610;2024-03-02T14:37:52;30.50;;;18.77;;
4198;SDS011;2113;50.946;14.610;2024-03-02T14:40:20;30.77;;;19.35;;
4198;SDS011;2113;50.946;14.610;2024-03-02T14:42:50;29.52;;;18.23;;
4198;SDS011;2113;50.946;14.610;2024-03-02T14:45:18;29.52;;;19.92;;
4198;SDS011;2113;50.946;14.610;2024-03-02T14:47:46;37.10;;;20.92;;